createdAt,value
2017-12-10T00:01:20.852Z,1.60
2017-12-10T00:03:50.552Z,1.60
2017-12-10T00:06:18.538Z,1.60
2017-12-10T00:08:46.101Z,1.60
2017-12-10T00:11:13.621Z,1.60
2017-12-10T00:13:41.171Z,1.60
2017-12-10T00:16:08.717Z,1.60
2017-12-10T00:18:36.233Z,1.60
2017-12-10T00:21:03.789Z,1.60
2017-12-10T00:23:31.323Z,1.70
2017-12-10T00:25:59.745Z,1.70
2017-12-10T00:28:27.347Z,1.70
2017-12-10T00:30:55.756Z,1.70
2017-12-10T00:33:23.381Z,1.70
2017-12-10T00:35:50.997Z,1.80
2017-12-10T00:38:18.961Z,1.70
2017-12-10T00:40:46.541Z,1.80
2017-12-10T00:43:14.844Z,1.80
2017-12-10T00:45:43.150Z,1.80
2017-12-10T00:48:10.678Z,1.80
2017-12-10T00:50:39.087Z,1.80
2017-12-10T00:53:06.675Z,1.80
2017-12-10T00:55:34.332Z,1.80
2017-12-10T00:58:01.920Z,1.70
2017-12-10T01:00:32.108Z,1.70
2017-12-10T01:03:00.276Z,1.70
2017-12-10T01:05:28.489Z,1.70
2017-12-10T01:07:56.092Z,1.70
2017-12-10T01:10:23.616Z,1.70
2017-12-10T01:12:51.140Z,1.60
2017-12-10T01:15:18.693Z,1.60
2017-12-10T01:17:46.225Z,1.60
2017-12-10T01:20:13.744Z,1.60
2017-12-10T01:22:41.308Z,1.70
2017-12-10T01:25:08.845Z,1.60
2017-12-10T01:27:36.770Z,1.70
2017-12-10T01:30:04.468Z,1.60
2017-12-10T01:32:32.222Z,1.60
2017-12-10T01:35:00.153Z,1.60
2017-12-10T01:37:27.908Z,1.70
2017-12-10T01:39:55.482Z,1.70
2017-12-10T01:42:23.771Z,1.70
2017-12-10T01:44:52.112Z,1.70
2017-12-10T01:47:19.635Z,1.70
2017-12-10T01:49:47.161Z,1.70
2017-12-10T01:52:15.492Z,1.70
2017-12-10T01:54:43.025Z,1.70
2017-12-10T01:57:10.585Z,1.70
2017-12-10T01:59:38.472Z,1.70
2017-12-10T02:02:07.036Z,1.70
2017-12-10T02:04:34.913Z,1.60
2017-12-10T02:07:04.552Z,1.60
2017-12-10T02:09:32.901Z,1.70
2017-12-10T02:12:03.215Z,1.70
2017-12-10T02:14:31.501Z,1.60
2017-12-10T02:16:59.881Z,1.60
2017-12-10T02:19:27.874Z,1.60
2017-12-10T02:21:56.442Z,1.60
2017-12-10T02:24:24.010Z,1.60
2017-12-10T02:26:51.553Z,1.70
2017-12-10T02:29:19.148Z,1.70
2017-12-10T02:31:46.632Z,1.60
2017-12-10T02:34:14.153Z,1.60
2017-12-10T02:36:41.712Z,1.60
2017-12-10T02:39:09.997Z,1.50
2017-12-10T02:41:37.766Z,1.50
2017-12-10T02:44:05.341Z,1.50
2017-12-10T02:46:32.948Z,1.50
2017-12-10T02:49:00.833Z,1.60
2017-12-10T02:51:28.607Z,1.50
2017-12-10T02:53:56.189Z,1.50
2017-12-10T02:56:23.742Z,1.50
2017-12-10T02:58:51.280Z,1.50
2017-12-10T03:01:18.829Z,1.40
2017-12-10T03:03:46.384Z,1.40
2017-12-10T03:06:13.906Z,1.40
2017-12-10T03:08:42.946Z,1.40
2017-12-10T03:11:10.470Z,1.30
2017-12-10T03:13:38.757Z,1.30
2017-12-10T03:16:07.073Z,1.30
2017-12-10T03:18:34.667Z,1.30
2017-12-10T03:21:02.317Z,1.30
2017-12-10T03:23:30.928Z,1.50
2017-12-10T03:26:00.686Z,1.40
2017-12-10T03:28:29.177Z,1.40
2017-12-10T03:30:57.761Z,1.40
2017-12-10T03:33:26.508Z,1.40
2017-12-10T03:35:54.790Z,1.50
2017-12-10T03:38:23.128Z,1.60
2017-12-10T03:40:50.657Z,1.60
2017-12-10T03:43:18.228Z,1.60
2017-12-10T03:45:45.917Z,1.60
2017-12-10T03:48:14.498Z,1.60
2017-12-10T03:50:42.095Z,1.60
2017-12-10T03:53:10.204Z,1.60
2017-12-10T03:55:37.868Z,1.70
2017-12-10T03:58:06.229Z,1.70
2017-12-10T04:00:33.813Z,1.70
2017-12-10T04:03:01.338Z,1.70
2017-12-10T04:05:29.637Z,1.80
2017-12-10T04:07:57.153Z,1.80
2017-12-10T04:10:24.699Z,1.80
2017-12-10T04:12:52.275Z,1.80
2017-12-10T04:15:19.866Z,1.70
2017-12-10T04:17:48.228Z,1.70
2017-12-10T04:20:15.750Z,1.70
2017-12-10T04:22:43.283Z,1.80
2017-12-10T04:25:10.801Z,1.70
2017-12-10T04:27:38.335Z,1.70
2017-12-10T04:30:06.625Z,1.60
2017-12-10T04:32:35.020Z,1.70
2017-12-10T04:35:04.434Z,1.70
2017-12-10T04:37:32.102Z,1.70
2017-12-10T04:40:00.562Z,1.60
2017-12-10T04:42:28.339Z,1.60
2017-12-10T04:44:56.445Z,1.50
2017-12-10T04:47:25.113Z,1.40
2017-12-10T04:49:54.998Z,1.60
2017-12-10T04:52:22.718Z,1.60
2017-12-10T04:54:50.298Z,1.60
2017-12-10T04:57:17.821Z,1.60
2017-12-10T04:59:45.370Z,1.50
2017-12-10T05:02:12.881Z,1.50
2017-12-10T05:04:41.226Z,1.30
2017-12-10T05:07:08.769Z,1.30
2017-12-10T05:09:36.293Z,1.30
2017-12-10T05:12:03.921Z,1.30
2017-12-10T05:14:32.335Z,1.50
2017-12-10T05:16:59.911Z,1.50
2017-12-10T05:19:28.003Z,1.50
2017-12-10T05:21:56.194Z,1.50
2017-12-10T05:24:24.559Z,1.60
2017-12-10T05:26:52.099Z,1.70
2017-12-10T05:29:19.697Z,1.60
2017-12-10T05:31:47.218Z,1.70
2017-12-10T05:34:14.754Z,1.70
2017-12-10T05:36:43.035Z,1.70
2017-12-10T05:39:11.341Z,1.80
2017-12-10T05:41:38.853Z,1.70
2017-12-10T05:44:06.394Z,1.80
2017-12-10T05:46:34.156Z,1.90
2017-12-10T05:49:02.003Z,1.80
2017-12-10T05:51:29.736Z,1.80
2017-12-10T05:53:58.558Z,1.80
2017-12-10T05:56:26.662Z,1.80
2017-12-10T05:58:56.385Z,1.80
2017-12-10T06:01:24.757Z,1.80
2017-12-10T06:03:52.585Z,1.80
2017-12-10T06:06:21.053Z,1.90
2017-12-10T06:08:48.632Z,1.90
2017-12-10T06:11:16.153Z,1.90
2017-12-10T06:13:44.470Z,1.90
2017-12-10T06:16:11.985Z,1.90
2017-12-10T06:18:40.269Z,1.90
2017-12-10T06:21:08.574Z,1.90
2017-12-10T06:23:37.014Z,1.90
2017-12-10T06:26:04.640Z,1.90
2017-12-10T06:28:32.227Z,1.90
2017-12-10T06:31:00.588Z,2.00
2017-12-10T06:33:29.023Z,2.00
2017-12-10T06:35:56.659Z,2.00
2017-12-10T06:38:24.681Z,2.00
2017-12-10T06:40:52.342Z,2.00
2017-12-10T06:43:21.615Z,2.10
2017-12-10T06:45:49.133Z,2.10
2017-12-10T06:48:16.670Z,2.20
2017-12-10T06:50:44.195Z,2.20
2017-12-10T06:53:12.489Z,2.20
2017-12-10T06:55:40.006Z,2.10
2017-12-10T06:58:08.361Z,2.20
2017-12-10T07:00:35.953Z,2.20
2017-12-10T07:03:04.579Z,2.20
2017-12-10T07:05:32.155Z,2.20
2017-12-10T07:07:59.904Z,2.20
2017-12-10T07:10:28.128Z,2.10
2017-12-10T07:12:58.973Z,2.20
2017-12-10T07:15:28.015Z,2.20
2017-12-10T07:17:56.491Z,2.20
2017-12-10T07:20:27.945Z,2.30
2017-12-10T07:22:56.523Z,2.30
2017-12-10T07:25:24.723Z,2.30
2017-12-10T07:27:53.096Z,2.30
2017-12-10T07:30:20.713Z,2.30
2017-12-10T07:32:48.276Z,2.30
2017-12-10T07:35:16.558Z,2.30
2017-12-10T07:37:44.870Z,2.30
2017-12-10T07:40:12.397Z,2.30
2017-12-10T07:42:40.727Z,2.40
2017-12-10T07:45:08.251Z,2.40
2017-12-10T07:47:35.933Z,2.40
2017-12-10T07:50:03.592Z,2.40
2017-12-10T07:52:31.382Z,2.40
2017-12-10T07:54:59.298Z,2.40
2017-12-10T07:57:27.302Z,2.40
2017-12-10T07:59:56.193Z,2.40
2017-12-10T08:02:25.178Z,2.50
2017-12-10T08:04:53.062Z,2.50
2017-12-10T08:07:20.603Z,2.50
2017-12-10T08:09:48.145Z,2.50
2017-12-10T08:12:16.437Z,2.50
2017-12-10T08:14:43.948Z,2.50
2017-12-10T08:17:13.021Z,2.40
2017-12-10T08:19:40.561Z,2.40
2017-12-10T08:22:08.133Z,2.40
2017-12-10T08:24:35.705Z,2.50
2017-12-10T08:27:03.657Z,2.40
2017-12-10T08:29:31.354Z,2.50
2017-12-10T08:31:59.904Z,2.50
2017-12-10T08:34:29.410Z,2.50
2017-12-10T08:36:57.347Z,2.50
2017-12-10T08:39:25.655Z,2.50
2017-12-10T08:41:54.752Z,2.40
2017-12-10T08:44:23.683Z,2.50
2017-12-10T08:46:51.993Z,2.30
2017-12-10T08:49:20.330Z,2.30
2017-12-10T08:51:47.846Z,2.30
2017-12-10T08:54:15.393Z,2.40
2017-12-10T08:56:42.978Z,2.40
2017-12-10T08:59:10.518Z,2.40
2017-12-10T09:01:38.168Z,2.30
2017-12-10T09:04:06.498Z,2.30
2017-12-10T09:06:34.337Z,2.30
2017-12-10T09:09:01.946Z,2.30
2017-12-10T09:11:29.776Z,2.30
2017-12-10T09:13:57.954Z,2.30
2017-12-10T09:16:25.715Z,2.30
2017-12-10T09:18:54.094Z,2.30
2017-12-10T09:21:22.588Z,2.20
2017-12-10T09:23:50.350Z,2.20
2017-12-10T09:26:17.901Z,2.10
2017-12-10T09:28:45.454Z,2.10
2017-12-10T09:31:13.021Z,2.00
2017-12-10T09:33:40.543Z,1.90
2017-12-10T09:36:08.860Z,1.70
2017-12-10T09:38:36.693Z,1.70
2017-12-10T09:41:05.175Z,1.40
2017-12-10T09:43:32.869Z,1.40
2017-12-10T09:46:00.636Z,1.30
2017-12-10T09:48:28.645Z,1.20
2017-12-10T09:50:57.696Z,1.20
2017-12-10T09:53:26.063Z,1.10
2017-12-10T09:55:53.829Z,1.10
2017-12-10T09:58:22.362Z,1.00
2017-12-10T10:00:49.974Z,1.00
2017-12-10T10:03:17.567Z,0.90
2017-12-10T10:05:45.100Z,0.90
2017-12-10T10:08:12.628Z,0.90
2017-12-10T10:10:40.944Z,0.80
2017-12-10T10:13:08.475Z,0.80
2017-12-10T10:15:36.081Z,0.80
2017-12-10T10:18:03.810Z,0.70
2017-12-10T10:20:31.414Z,0.70
2017-12-10T10:22:59.021Z,0.60
2017-12-10T10:25:27.703Z,0.50
2017-12-10T10:27:56.461Z,0.50
2017-12-10T10:30:25.796Z,0.50
2017-12-10T10:32:54.312Z,0.40
2017-12-10T10:35:23.319Z,0.40
2017-12-10T10:37:51.706Z,0.40
2017-12-10T10:40:19.277Z,0.40
2017-12-10T10:42:46.803Z,0.50
2017-12-10T10:45:14.381Z,0.50
2017-12-10T10:47:41.910Z,0.50
2017-12-10T10:50:09.477Z,0.50
2017-12-10T10:52:37.013Z,0.50
2017-12-10T10:55:04.535Z,0.50
2017-12-10T10:57:32.072Z,0.40
2017-12-10T11:00:00.359Z,0.50
2017-12-10T11:02:28.312Z,0.40
2017-12-10T11:04:56.662Z,0.40
2017-12-10T11:07:25.041Z,0.40
2017-12-10T11:09:52.580Z,0.30
2017-12-10T11:12:20.866Z,0.40
2017-12-10T11:14:49.183Z,0.40
2017-12-10T11:17:16.714Z,0.40
2017-12-10T11:19:44.268Z,0.40
2017-12-10T11:22:11.806Z,0.40
2017-12-10T11:24:39.345Z,0.40
2017-12-10T11:27:06.967Z,0.50
2017-12-10T11:29:34.557Z,0.50
2017-12-10T11:32:03.243Z,0.40
2017-12-10T11:34:31.409Z,0.30
2017-12-10T11:36:59.168Z,0.40
2017-12-10T11:39:26.930Z,0.50
2017-12-10T11:41:54.460Z,0.50
2017-12-10T11:44:21.981Z,0.50
2017-12-10T11:46:49.549Z,0.50
2017-12-10T11:49:18.668Z,0.60
2017-12-10T11:51:46.984Z,0.70
2017-12-10T11:54:14.520Z,0.60
2017-12-10T11:56:42.072Z,0.80
2017-12-10T11:59:10.101Z,0.80
2017-12-10T12:01:40.032Z,0.90
2017-12-10T12:04:08.584Z,0.90
2017-12-10T12:06:37.265Z,1.00
2017-12-10T12:09:07.189Z,1.20
2017-12-10T12:11:34.938Z,1.10
2017-12-10T12:14:02.783Z,1.20
2017-12-10T12:16:30.322Z,1.10
2017-12-10T12:18:59.525Z,1.30
2017-12-10T12:21:27.871Z,1.30
2017-12-10T12:23:55.462Z,1.30
2017-12-10T12:26:23.752Z,1.40
2017-12-10T12:28:52.068Z,1.70
2017-12-10T12:31:20.500Z,1.60
2017-12-10T12:33:48.900Z,2.30
2017-12-10T12:36:16.441Z,2.30
2017-12-10T12:38:44.874Z,2.70
2017-12-10T12:41:12.466Z,2.60
2017-12-10T12:43:40.998Z,2.80
2017-12-10T12:46:08.895Z,2.80
2017-12-10T12:48:36.659Z,2.80
2017-12-10T12:51:04.231Z,2.80
2017-12-10T12:53:31.750Z,2.90
2017-12-10T12:55:59.415Z,3.10
2017-12-10T12:58:26.948Z,3.10
2017-12-10T13:00:55.330Z,3.50
2017-12-10T13:03:23.645Z,3.70
2017-12-10T13:05:51.161Z,3.70
2017-12-10T13:08:19.467Z,4.00
2017-12-10T13:10:46.988Z,3.90
2017-12-10T13:13:14.606Z,3.90
2017-12-10T13:15:42.802Z,3.80
2017-12-10T13:18:10.741Z,3.80
2017-12-10T13:20:38.481Z,3.70
2017-12-10T13:23:07.112Z,4.00
2017-12-10T13:25:34.740Z,4.00
2017-12-10T13:28:02.261Z,4.00
2017-12-10T13:30:29.796Z,4.10
2017-12-10T13:32:57.318Z,4.20
2017-12-10T13:35:24.883Z,4.40
2017-12-10T13:37:52.427Z,4.70
2017-12-10T13:40:20.080Z,4.70
2017-12-10T13:42:48.395Z,4.80
2017-12-10T13:45:15.950Z,4.80
2017-12-10T13:47:43.596Z,4.70
2017-12-10T13:50:11.333Z,4.60
2017-12-10T13:52:40.132Z,4.70
2017-12-10T13:55:08.182Z,4.70
2017-12-10T13:57:35.777Z,4.70
2017-12-10T14:00:03.444Z,4.70
2017-12-10T14:02:30.968Z,4.60
2017-12-10T14:04:59.763Z,4.60
2017-12-10T14:07:27.291Z,4.70
2017-12-10T14:09:54.848Z,4.70
2017-12-10T14:12:22.373Z,4.80
2017-12-10T14:14:49.893Z,4.70
2017-12-10T14:17:17.512Z,4.70
2017-12-10T14:19:45.145Z,4.70
2017-12-10T14:22:12.934Z,4.70
2017-12-10T14:24:40.641Z,4.80
2017-12-10T14:27:08.683Z,4.80
2017-12-10T14:29:36.324Z,4.90
2017-12-10T14:32:03.879Z,5.00
2017-12-10T14:34:31.968Z,5.10
2017-12-10T14:36:59.489Z,5.20
2017-12-10T14:39:27.861Z,5.30
2017-12-10T14:41:56.190Z,5.50
2017-12-10T14:44:23.754Z,5.40
2017-12-10T14:46:51.286Z,5.60
2017-12-10T14:49:18.814Z,5.60
2017-12-10T14:51:47.271Z,5.60
2017-12-10T14:54:14.864Z,5.60
2017-12-10T14:56:42.447Z,5.70
2017-12-10T14:59:10.118Z,5.90
2017-12-10T15:01:37.834Z,5.90
2017-12-10T15:04:06.783Z,5.80
2017-12-10T15:06:34.306Z,5.70
2017-12-10T15:09:02.605Z,5.80
2017-12-10T15:11:30.128Z,5.80
2017-12-10T15:13:57.700Z,5.90
2017-12-10T15:16:25.989Z,5.90
2017-12-10T15:18:54.272Z,6.00
2017-12-10T15:21:21.822Z,6.00
2017-12-10T15:23:50.114Z,6.20
2017-12-10T15:26:17.758Z,6.20
2017-12-10T15:28:46.142Z,6.10
2017-12-10T15:31:13.792Z,6.10
2017-12-10T15:33:42.165Z,6.10
2017-12-10T15:36:09.801Z,6.10
2017-12-10T15:38:38.461Z,6.20
2017-12-10T15:41:06.956Z,6.10
2017-12-10T15:43:34.527Z,6.30
2017-12-10T15:46:02.102Z,6.30
2017-12-10T15:48:29.708Z,6.50
2017-12-10T15:50:57.306Z,6.40
2017-12-10T15:53:25.731Z,6.50
2017-12-10T15:55:55.073Z,6.40
2017-12-10T15:58:22.635Z,6.30
2017-12-10T16:00:50.181Z,6.40
2017-12-10T16:03:17.733Z,6.50
2017-12-10T16:05:46.552Z,6.60
2017-12-10T16:08:14.271Z,6.60
2017-12-10T16:10:41.864Z,6.60
2017-12-10T16:13:09.729Z,6.70
2017-12-10T16:15:37.331Z,6.70
2017-12-10T16:18:04.983Z,6.60
2017-12-10T16:20:32.834Z,6.60
2017-12-10T16:23:00.347Z,6.80
2017-12-10T16:25:28.762Z,6.90
2017-12-10T16:27:56.283Z,6.90
2017-12-10T16:30:24.587Z,6.90
2017-12-10T16:32:52.271Z,6.80
2017-12-10T16:35:19.965Z,6.90
2017-12-10T16:37:47.880Z,6.90
2017-12-10T16:40:16.022Z,7.00
2017-12-10T16:42:44.520Z,7.00
2017-12-10T16:45:12.974Z,6.90
2017-12-10T16:47:40.690Z,7.00
2017-12-10T16:50:08.341Z,7.20
2017-12-10T16:52:36.015Z,7.20
2017-12-10T16:55:03.570Z,7.30
2017-12-10T16:57:31.096Z,7.30
2017-12-10T16:59:59.405Z,7.10
2017-12-10T17:02:26.975Z,7.10
2017-12-10T17:04:54.725Z,7.00
2017-12-10T17:07:22.299Z,7.00
2017-12-10T17:09:49.910Z,7.00
2017-12-10T17:12:17.482Z,7.00
2017-12-10T17:14:45.985Z,7.20
2017-12-10T17:17:13.680Z,7.10
2017-12-10T17:19:41.345Z,7.10
2017-12-10T17:22:09.247Z,7.10
2017-12-10T17:24:39.412Z,7.10
2017-12-10T17:27:07.392Z,7.10
2017-12-10T17:29:34.984Z,7.30
2017-12-10T17:32:02.516Z,7.40
2017-12-10T17:34:30.068Z,7.50
2017-12-10T17:36:57.649Z,7.30
2017-12-10T17:39:25.223Z,7.30
2017-12-10T17:41:52.748Z,7.30
2017-12-10T17:44:20.290Z,7.40
2017-12-10T17:46:47.835Z,7.40
2017-12-10T17:49:16.165Z,7.50
2017-12-10T17:51:43.758Z,7.50
2017-12-10T17:54:12.160Z,7.60
2017-12-10T17:56:40.129Z,7.50
2017-12-10T17:59:07.837Z,7.50
2017-12-10T18:01:35.386Z,7.40
2017-12-10T18:04:02.912Z,7.40
2017-12-10T18:06:31.204Z,7.50
2017-12-10T18:08:58.776Z,7.50
2017-12-10T18:11:26.295Z,7.40
2017-12-10T18:13:58.729Z,7.40
2017-12-10T18:16:26.251Z,7.40
2017-12-10T18:18:53.847Z,7.50
2017-12-10T18:21:21.406Z,7.40
2017-12-10T18:23:48.980Z,7.30
2017-12-10T18:26:16.550Z,7.20
2017-12-10T18:28:44.338Z,7.10
2017-12-10T18:31:11.893Z,7.10
2017-12-10T18:33:41.754Z,7.00
2017-12-10T18:36:09.452Z,7.00
2017-12-10T18:38:37.050Z,7.00
2017-12-10T18:41:04.704Z,7.00
2017-12-10T18:43:33.021Z,6.90
2017-12-10T18:46:00.593Z,6.80
2017-12-10T18:48:28.150Z,6.90
2017-12-10T18:50:55.674Z,7.00
2017-12-10T18:53:23.222Z,7.10
2017-12-10T18:55:51.637Z,7.10
2017-12-10T18:58:19.173Z,7.10
2017-12-10T19:00:47.028Z,7.10
2017-12-10T19:03:15.432Z,7.10
2017-12-10T19:05:42.993Z,7.00
2017-12-10T19:08:10.680Z,7.00
2017-12-10T19:10:38.568Z,7.20
2017-12-10T19:13:07.833Z,7.20
2017-12-10T19:15:35.418Z,7.20
2017-12-10T19:18:02.964Z,7.10
2017-12-10T19:20:30.560Z,7.00
2017-12-10T19:22:58.088Z,7.10
2017-12-10T19:25:25.714Z,7.10
2017-12-10T19:27:53.237Z,7.20
2017-12-10T19:30:20.845Z,7.10
2017-12-10T19:32:48.406Z,7.00
2017-12-10T19:35:16.018Z,7.00
2017-12-10T19:37:43.948Z,7.00
2017-12-10T19:40:11.602Z,7.00
2017-12-10T19:42:39.532Z,7.00
2017-12-10T19:45:07.558Z,6.90
2017-12-10T19:47:35.725Z,6.90
2017-12-10T19:50:03.305Z,6.90
2017-12-10T19:52:30.938Z,6.80
2017-12-10T19:54:58.474Z,6.70
2017-12-10T19:57:26.049Z,6.60
2017-12-10T19:59:53.778Z,6.70
2017-12-10T20:02:21.426Z,6.60
2017-12-10T20:04:49.003Z,6.60
2017-12-10T20:07:16.562Z,6.60
2017-12-10T20:09:45.836Z,6.90
2017-12-10T20:12:14.122Z,6.90
2017-12-10T20:14:42.263Z,6.90
2017-12-10T20:17:10.656Z,6.90
2017-12-10T20:19:38.578Z,6.90
2017-12-10T20:22:06.987Z,6.50
2017-12-10T20:24:34.529Z,6.50
2017-12-10T20:27:02.212Z,6.40
2017-12-10T20:32:03.951Z,6.60
2017-12-10T20:34:32.239Z,6.90
2017-12-10T20:37:00.577Z,7.00
2017-12-10T20:39:28.193Z,7.00
2017-12-10T20:41:55.770Z,7.00
2017-12-10T20:44:24.281Z,6.90
2017-12-10T20:46:52.102Z,6.80
2017-12-10T20:49:19.654Z,6.70
2017-12-10T20:51:47.268Z,6.50
2017-12-10T20:54:14.918Z,6.30
2017-12-10T20:56:42.972Z,6.20
2017-12-10T20:59:11.165Z,6.00
2017-12-10T21:01:39.818Z,5.90
2017-12-10T21:04:08.654Z,5.70
2017-12-10T21:06:37.988Z,5.60
2017-12-10T21:09:05.693Z,5.60
2017-12-10T21:11:34.379Z,5.60
2017-12-10T21:14:01.917Z,5.50
2017-12-10T21:16:30.398Z,5.50
2017-12-10T21:18:58.247Z,5.50
2017-12-10T21:21:26.559Z,5.30
2017-12-10T21:23:54.229Z,5.30
2017-12-10T21:26:21.794Z,5.20
2017-12-10T21:28:49.400Z,5.10
2017-12-10T21:31:17.269Z,5.00
2017-12-10T21:33:45.909Z,4.60
2017-12-10T21:36:13.769Z,4.50
2017-12-10T21:38:41.842Z,4.40
2017-12-10T21:41:10.509Z,4.30
2017-12-10T21:43:39.031Z,4.30
2017-12-10T21:46:07.216Z,4.30
2017-12-10T21:48:35.740Z,4.30
2017-12-10T21:51:03.314Z,4.30
2017-12-10T21:53:30.861Z,4.30
2017-12-10T21:55:58.443Z,4.20
2017-12-10T21:58:26.013Z,4.20
2017-12-10T22:00:53.557Z,4.20
2017-12-10T22:03:21.094Z,4.10
2017-12-10T22:05:49.438Z,4.10
2017-12-10T22:08:17.507Z,4.10
2017-12-10T22:10:45.255Z,4.10
2017-12-10T22:13:13.038Z,4.00
2017-12-10T22:15:42.387Z,4.00
2017-12-10T22:18:11.186Z,3.90
2017-12-10T22:20:40.133Z,3.90
2017-12-10T22:23:09.288Z,3.90
2017-12-10T22:25:37.400Z,3.90
2017-12-10T22:28:05.021Z,3.80
2017-12-10T22:30:32.534Z,3.80
2017-12-10T22:33:00.054Z,3.60
2017-12-10T22:35:27.987Z,3.60
2017-12-10T22:37:55.519Z,3.60
2017-12-10T22:40:23.081Z,3.50
2017-12-10T22:42:50.835Z,3.40
2017-12-10T22:45:19.217Z,3.20
2017-12-10T22:47:47.597Z,3.10
2017-12-10T22:50:16.151Z,3.20
2017-12-10T22:52:43.814Z,3.10
2017-12-10T22:55:12.666Z,3.20
2017-12-10T22:57:40.566Z,3.20
2017-12-10T23:00:08.946Z,3.20
2017-12-10T23:02:36.659Z,3.20
2017-12-10T23:05:04.269Z,3.10
2017-12-10T23:07:31.810Z,3.00
2017-12-10T23:09:59.465Z,2.90
2017-12-10T23:12:26.994Z,3.00
2017-12-10T23:14:54.535Z,2.80
2017-12-10T23:17:22.073Z,2.80
2017-12-10T23:19:49.730Z,2.80
2017-12-10T23:22:17.478Z,2.80
2017-12-10T23:24:45.157Z,2.80
2017-12-10T23:27:13.001Z,2.70
2017-12-10T23:29:41.597Z,2.70
2017-12-10T23:32:10.018Z,2.50
2017-12-10T23:34:38.273Z,2.50
2017-12-10T23:37:06.100Z,2.60
2017-12-10T23:39:33.772Z,2.60
2017-12-10T23:42:02.080Z,2.60
2017-12-10T23:44:31.366Z,2.50
2017-12-10T23:46:58.911Z,2.50
2017-12-10T23:49:27.206Z,2.60
2017-12-10T23:51:54.731Z,2.50
2017-12-10T23:54:22.269Z,2.60
2017-12-10T23:56:50.594Z,2.70
2017-12-10T23:59:18.302Z,2.60
